sensor_id;sensor_type;location;lat;lon;timestamp;P1;durP1;ratioP1;P2;durP2;ratioP2
7239;SDS011;3661;53.288;10.458;2023-05-16T00:01:49;1574.38;;;999.90;;
7239;SDS011;3661;53.288;10.458;2023-05-16T00:04:23;1565.00;;;999.90;;
7239;SDS011;3661;53.288;10.458;2023-05-16T00:06:56;1550.65;;;999.90;;
7239;SDS011;3661;53.288;10.458;2023-05-16T00:09:28;1552.63;;;999.90;;
7239;SDS011;3661;53.288;10.458;2023-05-16T00:12:01;1550.90;;;999.90;;
7239;SDS011;3661;53.288;10.458;2023-05-16T00:14:33;1532.75;;;999.90;;
7239;SDS011;3661;53.288;10.458;2023-05-16T00:17:06;1541.75;;;999.90;;
7239;SDS011;3661;53.288;10.458;2023-05-16T00:19:42;1552.93;;;999.90;;
7239;SDS011;3661;53.288;10.458;2023-05-16T00:22:16;1564.28;;;999.90;;
7239;SDS011;3661;53.288;10.458;2023-05-16T00:24:48;1557.22;;;999.90;;
7239;SDS011;3661;53.288;10.458;2023-05-16T00:27:21;1561.65;;;999.90;;
7239;SDS011;3661;53.288;10.458;2023-05-16T00:29:54;1547.28;;;999.90;;
7239;SDS011;3661;53.288;10.458;2023-05-16T00:32:27;1554.43;;;999.90;;
7239;SDS011;3661;53.288;10.458;2023-05-16T00:35:00;1539.60;;;999.90;;
7239;SDS011;3661;53.288;10.458;2023-05-16T00:37:32;1530.72;;;999.90;;
7239;SDS011;3661;53.288;10.458;2023-05-16T00:40:06;1531.93;;;999.90;;
7239;SDS011;3661;53.288;10.458;2023-05-16T00:42:39;1554.28;;;999.90;;
7239;SDS011;3661;53.288;10.458;2023-05-16T00:45:15;1532.50;;;999.90;;
7239;SDS011;3661;53.288;10.458;2023-05-16T00:47:48;1530.70;;;999.90;;
7239;SDS011;3661;53.288;10.458;2023-05-16T00:50:22;1527.00;;;999.90;;
7239;SDS011;3661;53.288;10.458;2023-05-16T00:52:54;1536.03;;;999.90;;
7239;SDS011;3661;53.288;10.458;2023-05-16T00:55:27;1528.95;;;999.90;;
7239;SDS011;3661;53.288;10.458;2023-05-16T00:57:59;1513.40;;;999.90;;
7239;SDS011;3661;53.288;10.458;2023-05-16T01:00:31;1526.47;;;999.90;;
7239;SDS011;3661;53.288;10.458;2023-05-16T01:03:05;1546.85;;;999.90;;
7239;SDS011;3661;53.288;10.458;2023-05-16T01:05:39;1536.88;;;999.90;;
7239;SDS011;3661;53.288;10.458;2023-05-16T01:08:12;1551.45;;;999.90;;
7239;SDS011;3661;53.288;10.458;2023-05-16T01:10:46;1545.05;;;999.90;;
7239;SDS011;3661;53.288;10.458;2023-05-16T01:13:23;1530.40;;;999.90;;
7239;SDS011;3661;53.288;10.458;2023-05-16T01:16:03;1535.80;;;999.90;;
7239;SDS011;3661;53.288;10.458;2023-05-16T01:18:41;1552.07;;;999.90;;
7239;SDS011;3661;53.288;10.458;2023-05-16T01:21:23;1543.53;;;999.90;;
7239;SDS011;3661;53.288;10.458;2023-05-16T01:24:12;1532.75;;;999.90;;
7239;SDS011;3661;53.288;10.458;2023-05-16T01:26:56;1536.30;;;999.90;;
7239;SDS011;3661;53.288;10.458;2023-05-16T01:29:30;1536.28;;;999.90;;
7239;SDS011;3661;53.288;10.458;2023-05-16T01:32:04;1536.57;;;999.90;;
7239;SDS011;3661;53.288;10.458;2023-05-16T01:34:36;1532.40;;;999.90;;
7239;SDS011;3661;53.288;10.458;2023-05-16T01:37:11;1524.10;;;999.90;;
7239;SDS011;3661;53.288;10.458;2023-05-16T01:39:50;1525.50;;;999.90;;
7239;SDS011;3661;53.288;10.458;2023-05-16T01:42:29;1538.45;;;999.90;;
7239;SDS011;3661;53.288;10.458;2023-05-16T01:45:04;1546.55;;;999.90;;
7239;SDS011;3661;53.288;10.458;2023-05-16T01:47:44;1523.43;;;999.90;;
7239;SDS011;3661;53.288;10.458;2023-05-16T01:50:20;1523.07;;;999.90;;
7239;SDS011;3661;53.288;10.458;2023-05-16T01:52:57;1534.65;;;999.90;;
7239;SDS011;3661;53.288;10.458;2023-05-16T01:55:38;1501.43;;;999.90;;
7239;SDS011;3661;53.288;10.458;2023-05-16T01:58:17;1497.53;;;999.90;;
7239;SDS011;3661;53.288;10.458;2023-05-16T02:00:52;1523.97;;;999.90;;
7239;SDS011;3661;53.288;10.458;2023-05-16T02:03:24;1515.55;;;999.90;;
7239;SDS011;3661;53.288;10.458;2023-05-16T02:05:57;1530.80;;;999.90;;
7239;SDS011;3661;53.288;10.458;2023-05-16T02:08:30;1505.40;;;999.90;;
7239;SDS011;3661;53.288;10.458;2023-05-16T02:11:02;1499.93;;;999.90;;
7239;SDS011;3661;53.288;10.458;2023-05-16T02:13:36;1511.07;;;999.90;;
7239;SDS011;3661;53.288;10.458;2023-05-16T02:16:09;1499.90;;;999.90;;
7239;SDS011;3661;53.288;10.458;2023-05-16T02:18:41;1509.00;;;999.90;;
7239;SDS011;3661;53.288;10.458;2023-05-16T02:21:14;1506.60;;;999.90;;
7239;SDS011;3661;53.288;10.458;2023-05-16T02:23:46;1526.45;;;999.90;;
7239;SDS011;3661;53.288;10.458;2023-05-16T02:26:27;1505.97;;;999.90;;
7239;SDS011;3661;53.288;10.458;2023-05-16T02:29:01;1509.88;;;999.90;;
7239;SDS011;3661;53.288;10.458;2023-05-16T02:31:34;1508.93;;;999.90;;
7239;SDS011;3661;53.288;10.458;2023-05-16T02:34:06;1520.95;;;999.90;;
7239;SDS011;3661;53.288;10.458;2023-05-16T02:36:39;1519.15;;;999.90;;
7239;SDS011;3661;53.288;10.458;2023-05-16T02:39:12;1514.33;;;999.90;;
7239;SDS011;3661;53.288;10.458;2023-05-16T02:41:44;1500.47;;;999.90;;
7239;SDS011;3661;53.288;10.458;2023-05-16T02:44:17;1517.38;;;999.90;;
7239;SDS011;3661;53.288;10.458;2023-05-16T02:46:49;1491.23;;;999.90;;
7239;SDS011;3661;53.288;10.458;2023-05-16T02:49:22;1476.25;;;999.90;;
7239;SDS011;3661;53.288;10.458;2023-05-16T02:51:54;1536.73;;;999.90;;
7239;SDS011;3661;53.288;10.458;2023-05-16T02:54:27;1515.60;;;999.90;;
7239;SDS011;3661;53.288;10.458;2023-05-16T02:56:59;1529.40;;;999.90;;
7239;SDS011;3661;53.288;10.458;2023-05-16T02:59:33;1501.15;;;999.90;;
7239;SDS011;3661;53.288;10.458;2023-05-16T03:02:06;1508.88;;;999.90;;
7239;SDS011;3661;53.288;10.458;2023-05-16T03:04:38;1514.88;;;999.90;;
7239;SDS011;3661;53.288;10.458;2023-05-16T03:07:13;1503.93;;;999.90;;
7239;SDS011;3661;53.288;10.458;2023-05-16T03:09:47;1485.78;;;999.90;;
7239;SDS011;3661;53.288;10.458;2023-05-16T03:12:19;1493.32;;;999.90;;
7239;SDS011;3661;53.288;10.458;2023-05-16T03:14:53;1493.50;;;999.90;;
7239;SDS011;3661;53.288;10.458;2023-05-16T03:17:31;1505.88;;;999.90;;
7239;SDS011;3661;53.288;10.458;2023-05-16T03:20:04;1504.60;;;999.90;;
7239;SDS011;3661;53.288;10.458;2023-05-16T03:22:38;1518.82;;;999.90;;
7239;SDS011;3661;53.288;10.458;2023-05-16T03:25:10;1501.37;;;999.90;;
7239;SDS011;3661;53.288;10.458;2023-05-16T03:27:43;1496.63;;;999.90;;
7239;SDS011;3661;53.288;10.458;2023-05-16T03:30:16;1496.65;;;999.90;;
7239;SDS011;3661;53.288;10.458;2023-05-16T03:32:50;1498.25;;;999.90;;
7239;SDS011;3661;53.288;10.458;2023-05-16T03:35:23;1508.80;;;999.90;;
7239;SDS011;3661;53.288;10.458;2023-05-16T03:37:57;1482.25;;;999.90;;
7239;SDS011;3661;53.288;10.458;2023-05-16T03:40:30;1504.70;;;999.90;;
7239;SDS011;3661;53.288;10.458;2023-05-16T03:43:02;1505.47;;;999.90;;
7239;SDS011;3661;53.288;10.458;2023-05-16T03:45:36;1486.77;;;999.90;;
7239;SDS011;3661;53.288;10.458;2023-05-16T03:48:15;1511.80;;;999.90;;
7239;SDS011;3661;53.288;10.458;2023-05-16T03:50:48;1506.25;;;999.90;;
7239;SDS011;3661;53.288;10.458;2023-05-16T03:53:21;1503.40;;;999.90;;
7239;SDS011;3661;53.288;10.458;2023-05-16T03:55:53;1504.28;;;999.90;;
7239;SDS011;3661;53.288;10.458;2023-05-16T03:58:25;1501.50;;;999.90;;
7239;SDS011;3661;53.288;10.458;2023-05-16T04:00:59;1488.15;;;999.90;;
7239;SDS011;3661;53.288;10.458;2023-05-16T04:03:33;1496.53;;;999.90;;
7239;SDS011;3661;53.288;10.458;2023-05-16T04:06:07;1486.47;;;999.90;;
7239;SDS011;3661;53.288;10.458;2023-05-16T04:08:39;1490.55;;;999.90;;
7239;SDS011;3661;53.288;10.458;2023-05-16T04:11:14;1489.68;;;999.90;;
7239;SDS011;3661;53.288;10.458;2023-05-16T04:13:46;1504.05;;;999.90;;
7239;SDS011;3661;53.288;10.458;2023-05-16T04:16:19;1491.22;;;999.90;;
7239;SDS011;3661;53.288;10.458;2023-05-16T04:18:51;1460.85;;;999.90;;
7239;SDS011;3661;53.288;10.458;2023-05-16T04:21:25;1493.55;;;999.90;;
7239;SDS011;3661;53.288;10.458;2023-05-16T04:23:57;1485.90;;;999.90;;
7239;SDS011;3661;53.288;10.458;2023-05-16T04:26:30;1508.27;;;999.90;;
7239;SDS011;3661;53.288;10.458;2023-05-16T04:29:03;1506.38;;;999.90;;
7239;SDS011;3661;53.288;10.458;2023-05-16T04:31:37;1501.72;;;999.90;;
7239;SDS011;3661;53.288;10.458;2023-05-16T04:34:09;1494.27;;;999.90;;
7239;SDS011;3661;53.288;10.458;2023-05-16T04:36:42;1470.30;;;999.90;;
7239;SDS011;3661;53.288;10.458;2023-05-16T04:39:17;1493.65;;;999.90;;
7239;SDS011;3661;53.288;10.458;2023-05-16T04:41:49;1499.47;;;999.90;;
7239;SDS011;3661;53.288;10.458;2023-05-16T04:44:22;1484.45;;;999.90;;
7239;SDS011;3661;53.288;10.458;2023-05-16T04:46:56;1518.30;;;999.90;;
7239;SDS011;3661;53.288;10.458;2023-05-16T04:49:28;1489.47;;;999.90;;
7239;SDS011;3661;53.288;10.458;2023-05-16T04:52:00;1481.27;;;999.90;;
7239;SDS011;3661;53.288;10.458;2023-05-16T04:54:33;1490.18;;;999.90;;
7239;SDS011;3661;53.288;10.458;2023-05-16T04:57:05;1469.00;;;999.90;;
7239;SDS011;3661;53.288;10.458;2023-05-16T04:59:37;1494.93;;;999.90;;
7239;SDS011;3661;53.288;10.458;2023-05-16T05:02:10;1481.07;;;999.90;;
7239;SDS011;3661;53.288;10.458;2023-05-16T05:04:42;1468.05;;;999.90;;
7239;SDS011;3661;53.288;10.458;2023-05-16T05:07:14;1489.60;;;999.90;;
7239;SDS011;3661;53.288;10.458;2023-05-16T05:09:47;1499.00;;;999.90;;
7239;SDS011;3661;53.288;10.458;2023-05-16T05:12:19;1476.30;;;999.90;;
7239;SDS011;3661;53.288;10.458;2023-05-16T05:14:52;1493.03;;;999.90;;
7239;SDS011;3661;53.288;10.458;2023-05-16T05:17:26;1500.63;;;999.90;;
7239;SDS011;3661;53.288;10.458;2023-05-16T05:19:58;1497.13;;;999.90;;
7239;SDS011;3661;53.288;10.458;2023-05-16T05:22:31;1485.68;;;999.90;;
7239;SDS011;3661;53.288;10.458;2023-05-16T05:25:06;1469.90;;;999.90;;
7239;SDS011;3661;53.288;10.458;2023-05-16T05:27:39;1493.15;;;999.90;;
7239;SDS011;3661;53.288;10.458;2023-05-16T05:30:11;1494.75;;;999.90;;
7239;SDS011;3661;53.288;10.458;2023-05-16T05:32:45;1508.43;;;999.90;;
7239;SDS011;3661;53.288;10.458;2023-05-16T05:35:17;1509.75;;;999.90;;
7239;SDS011;3661;53.288;10.458;2023-05-16T05:37:49;1476.80;;;999.90;;
7239;SDS011;3661;53.288;10.458;2023-05-16T05:40:21;1500.82;;;999.90;;
7239;SDS011;3661;53.288;10.458;2023-05-16T05:42:53;1493.47;;;999.90;;
7239;SDS011;3661;53.288;10.458;2023-05-16T05:45:25;1511.57;;;999.90;;
7239;SDS011;3661;53.288;10.458;2023-05-16T05:48:00;1528.07;;;999.90;;
7239;SDS011;3661;53.288;10.458;2023-05-16T05:50:32;1518.05;;;999.90;;
7239;SDS011;3661;53.288;10.458;2023-05-16T05:53:05;1513.55;;;999.90;;
7239;SDS011;3661;53.288;10.458;2023-05-16T05:55:37;1525.88;;;999.90;;
7239;SDS011;3661;53.288;10.458;2023-05-16T05:58:10;1532.05;;;999.90;;
7239;SDS011;3661;53.288;10.458;2023-05-16T06:00:43;1523.00;;;999.90;;
7239;SDS011;3661;53.288;10.458;2023-05-16T06:03:16;1536.88;;;999.90;;
7239;SDS011;3661;53.288;10.458;2023-05-16T06:05:50;1530.40;;;999.90;;
7239;SDS011;3661;53.288;10.458;2023-05-16T06:08:22;1520.53;;;999.90;;
7239;SDS011;3661;53.288;10.458;2023-05-16T06:10:54;1543.63;;;999.90;;
7239;SDS011;3661;53.288;10.458;2023-05-16T06:13:26;1550.57;;;999.90;;
7239;SDS011;3661;53.288;10.458;2023-05-16T06:16:00;1537.40;;;999.90;;
7239;SDS011;3661;53.288;10.458;2023-05-16T06:18:33;1541.93;;;999.90;;
7239;SDS011;3661;53.288;10.458;2023-05-16T06:21:06;1547.53;;;999.90;;
7239;SDS011;3661;53.288;10.458;2023-05-16T06:23:38;1538.20;;;999.90;;
7239;SDS011;3661;53.288;10.458;2023-05-16T06:26:10;1543.88;;;999.90;;
7239;SDS011;3661;53.288;10.458;2023-05-16T06:28:42;1550.18;;;999.90;;
7239;SDS011;3661;53.288;10.458;2023-05-16T06:31:15;1548.72;;;999.90;;
7239;SDS011;3661;53.288;10.458;2023-05-16T06:33:50;1544.78;;;999.90;;
7239;SDS011;3661;53.288;10.458;2023-05-16T06:36:22;1528.05;;;999.90;;
7239;SDS011;3661;53.288;10.458;2023-05-16T06:38:54;1538.13;;;999.90;;
7239;SDS011;3661;53.288;10.458;2023-05-16T06:41:26;1523.05;;;999.90;;
7239;SDS011;3661;53.288;10.458;2023-05-16T06:43:59;1546.47;;;999.90;;
7239;SDS011;3661;53.288;10.458;2023-05-16T06:46:31;1524.75;;;999.90;;
7239;SDS011;3661;53.288;10.458;2023-05-16T06:49:04;1526.93;;;999.90;;
7239;SDS011;3661;53.288;10.458;2023-05-16T06:51:37;1546.97;;;999.90;;
7239;SDS011;3661;53.288;10.458;2023-05-16T06:54:09;1538.35;;;999.90;;
7239;SDS011;3661;53.288;10.458;2023-05-16T06:56:41;1517.78;;;999.90;;
7239;SDS011;3661;53.288;10.458;2023-05-16T06:59:15;1532.03;;;999.90;;
7239;SDS011;3661;53.288;10.458;2023-05-16T07:01:47;1539.72;;;999.90;;
7239;SDS011;3661;53.288;10.458;2023-05-16T07:04:20;1546.38;;;999.90;;
7239;SDS011;3661;53.288;10.458;2023-05-16T07:06:52;1528.63;;;999.90;;
7239;SDS011;3661;53.288;10.458;2023-05-16T07:09:27;1536.37;;;999.90;;
7239;SDS011;3661;53.288;10.458;2023-05-16T07:12:01;1558.60;;;999.90;;
7239;SDS011;3661;53.288;10.458;2023-05-16T07:14:37;1532.03;;;999.90;;
7239;SDS011;3661;53.288;10.458;2023-05-16T07:17:10;1534.05;;;999.90;;
7239;SDS011;3661;53.288;10.458;2023-05-16T07:19:44;1521.18;;;999.90;;
7239;SDS011;3661;53.288;10.458;2023-05-16T07:22:16;1535.05;;;999.90;;
7239;SDS011;3661;53.288;10.458;2023-05-16T07:24:49;1551.28;;;999.90;;
7239;SDS011;3661;53.288;10.458;2023-05-16T07:27:22;1532.05;;;999.90;;
7239;SDS011;3661;53.288;10.458;2023-05-16T07:29:55;1552.50;;;999.90;;
7239;SDS011;3661;53.288;10.458;2023-05-16T07:32:32;1541.97;;;999.90;;
7239;SDS011;3661;53.288;10.458;2023-05-16T07:35:17;1539.18;;;999.90;;
7239;SDS011;3661;53.288;10.458;2023-05-16T07:37:49;1547.70;;;999.90;;
7239;SDS011;3661;53.288;10.458;2023-05-16T07:40:22;1554.47;;;999.90;;
7239;SDS011;3661;53.288;10.458;2023-05-16T07:43:00;1552.57;;;999.90;;
7239;SDS011;3661;53.288;10.458;2023-05-16T07:45:33;1536.20;;;999.90;;
7239;SDS011;3661;53.288;10.458;2023-05-16T07:48:06;1555.43;;;999.90;;
7239;SDS011;3661;53.288;10.458;2023-05-16T07:50:51;1555.60;;;999.90;;
7239;SDS011;3661;53.288;10.458;2023-05-16T07:53:26;1551.65;;;999.90;;
7239;SDS011;3661;53.288;10.458;2023-05-16T07:56:02;1548.82;;;999.90;;
7239;SDS011;3661;53.288;10.458;2023-05-16T07:58:37;1549.05;;;999.90;;
7239;SDS011;3661;53.288;10.458;2023-05-16T08:01:10;1565.07;;;999.90;;
7239;SDS011;3661;53.288;10.458;2023-05-16T08:03:42;1571.18;;;999.90;;
7239;SDS011;3661;53.288;10.458;2023-05-16T08:06:24;1563.80;;;999.90;;
7239;SDS011;3661;53.288;10.458;2023-05-16T08:08:58;1582.72;;;999.90;;
7239;SDS011;3661;53.288;10.458;2023-05-16T08:11:44;1579.72;;;999.90;;
7239;SDS011;3661;53.288;10.458;2023-05-16T08:14:31;1578.30;;;999.90;;
7239;SDS011;3661;53.288;10.458;2023-05-16T08:17:04;1594.35;;;999.90;;
7239;SDS011;3661;53.288;10.458;2023-05-16T08:19:38;1573.72;;;999.90;;
7239;SDS011;3661;53.288;10.458;2023-05-16T08:25:02;1557.13;;;999.90;;
7239;SDS011;3661;53.288;10.458;2023-05-16T08:27:39;1602.90;;;999.90;;
7239;SDS011;3661;53.288;10.458;2023-05-16T08:30:21;1606.57;;;999.90;;
7239;SDS011;3661;53.288;10.458;2023-05-16T08:32:54;1607.80;;;999.90;;
7239;SDS011;3661;53.288;10.458;2023-05-16T08:35:26;1610.78;;;999.90;;
7239;SDS011;3661;53.288;10.458;2023-05-16T08:38:03;1625.80;;;999.90;;
7239;SDS011;3661;53.288;10.458;2023-05-16T08:40:35;1605.43;;;999.90;;
7239;SDS011;3661;53.288;10.458;2023-05-16T08:43:10;1633.10;;;999.90;;
7239;SDS011;3661;53.288;10.458;2023-05-16T08:45:42;1623.20;;;999.90;;
7239;SDS011;3661;53.288;10.458;2023-05-16T08:48:19;1648.97;;;999.90;;
7239;SDS011;3661;53.288;10.458;2023-05-16T08:50:54;1667.55;;;999.90;;
7239;SDS011;3661;53.288;10.458;2023-05-16T08:53:31;1673.95;;;999.90;;
7239;SDS011;3661;53.288;10.458;2023-05-16T08:56:10;1692.55;;;999.90;;
7239;SDS011;3661;53.288;10.458;2023-05-16T08:58:44;1669.10;;;999.90;;
7239;SDS011;3661;53.288;10.458;2023-05-16T09:01:16;1691.90;;;999.90;;
7239;SDS011;3661;53.288;10.458;2023-05-16T09:03:49;1675.33;;;999.90;;
7239;SDS011;3661;53.288;10.458;2023-05-16T09:06:24;1687.20;;;999.90;;
7239;SDS011;3661;53.288;10.458;2023-05-16T09:08:58;1671.33;;;999.90;;
7239;SDS011;3661;53.288;10.458;2023-05-16T09:11:30;1682.65;;;999.90;;
7239;SDS011;3661;53.288;10.458;2023-05-16T09:14:02;1709.28;;;999.90;;
7239;SDS011;3661;53.288;10.458;2023-05-16T09:16:35;1709.93;;;999.90;;
7239;SDS011;3661;53.288;10.458;2023-05-16T09:19:13;1716.05;;;999.90;;
7239;SDS011;3661;53.288;10.458;2023-05-16T09:21:45;1716.50;;;999.90;;
7239;SDS011;3661;53.288;10.458;2023-05-16T09:24:20;1726.40;;;999.90;;
7239;SDS011;3661;53.288;10.458;2023-05-16T09:26:57;1732.80;;;999.90;;
7239;SDS011;3661;53.288;10.458;2023-05-16T09:29:42;1750.72;;;999.90;;
7239;SDS011;3661;53.288;10.458;2023-05-16T09:32:22;1756.10;;;999.90;;
7239;SDS011;3661;53.288;10.458;2023-05-16T09:34:55;1751.03;;;999.90;;
7239;SDS011;3661;53.288;10.458;2023-05-16T09:37:29;1745.17;;;999.90;;
7239;SDS011;3661;53.288;10.458;2023-05-16T09:40:05;1762.38;;;999.90;;
7239;SDS011;3661;53.288;10.458;2023-05-16T09:42:48;1780.38;;;999.90;;
7239;SDS011;3661;53.288;10.458;2023-05-16T09:45:32;1768.72;;;999.90;;
7239;SDS011;3661;53.288;10.458;2023-05-16T09:48:06;1744.93;;;999.90;;
7239;SDS011;3661;53.288;10.458;2023-05-16T09:50:46;1787.07;;;999.90;;
7239;SDS011;3661;53.288;10.458;2023-05-16T09:53:25;1778.30;;;999.90;;
7239;SDS011;3661;53.288;10.458;2023-05-16T09:56:02;1772.25;;;999.90;;
7239;SDS011;3661;53.288;10.458;2023-05-16T09:58:37;1785.07;;;999.90;;
7239;SDS011;3661;53.288;10.458;2023-05-16T10:01:10;1801.07;;;999.90;;
7239;SDS011;3661;53.288;10.458;2023-05-16T10:03:43;1800.07;;;999.90;;
7239;SDS011;3661;53.288;10.458;2023-05-16T10:06:15;1794.78;;;999.90;;
7239;SDS011;3661;53.288;10.458;2023-05-16T10:08:53;1820.13;;;999.90;;
7239;SDS011;3661;53.288;10.458;2023-05-16T10:11:30;1815.13;;;999.90;;
7239;SDS011;3661;53.288;10.458;2023-05-16T10:14:03;1818.05;;;999.90;;
7239;SDS011;3661;53.288;10.458;2023-05-16T10:16:37;1846.90;;;999.90;;
7239;SDS011;3661;53.288;10.458;2023-05-16T10:19:15;1851.65;;;999.90;;
7239;SDS011;3661;53.288;10.458;2023-05-16T10:21:51;1847.03;;;999.90;;
7239;SDS011;3661;53.288;10.458;2023-05-16T10:24:30;1851.63;;;999.90;;
7239;SDS011;3661;53.288;10.458;2023-05-16T10:27:11;1889.50;;;999.90;;
7239;SDS011;3661;53.288;10.458;2023-05-16T10:29:44;1886.55;;;999.90;;
7239;SDS011;3661;53.288;10.458;2023-05-16T10:32:17;1885.22;;;999.90;;
7239;SDS011;3661;53.288;10.458;2023-05-16T10:34:51;1873.78;;;999.90;;
7239;SDS011;3661;53.288;10.458;2023-05-16T10:37:35;1887.55;;;999.90;;
7239;SDS011;3661;53.288;10.458;2023-05-16T10:40:22;1897.07;;;999.90;;
7239;SDS011;3661;53.288;10.458;2023-05-16T10:43:21;1902.25;;;999.90;;
7239;SDS011;3661;53.288;10.458;2023-05-16T10:45:56;1883.00;;;999.90;;
7239;SDS011;3661;53.288;10.458;2023-05-16T10:48:47;1893.72;;;999.90;;
7239;SDS011;3661;53.288;10.458;2023-05-16T10:51:37;1899.15;;;999.90;;
7239;SDS011;3661;53.288;10.458;2023-05-16T10:54:24;1900.38;;;999.90;;
7239;SDS011;3661;53.288;10.458;2023-05-16T10:57:09;1891.65;;;999.90;;
7239;SDS011;3661;53.288;10.458;2023-05-16T10:59:46;1914.97;;;999.90;;
7239;SDS011;3661;53.288;10.458;2023-05-16T11:02:32;1901.75;;;999.90;;
7239;SDS011;3661;53.288;10.458;2023-05-16T11:05:23;1895.33;;;999.90;;
7239;SDS011;3661;53.288;10.458;2023-05-16T11:08:04;1881.40;;;999.90;;
7239;SDS011;3661;53.288;10.458;2023-05-16T11:10:44;1869.30;;;999.90;;
7239;SDS011;3661;53.288;10.458;2023-05-16T11:13:52;1886.03;;;999.90;;
7239;SDS011;3661;53.288;10.458;2023-05-16T11:16:33;1866.53;;;999.90;;
7239;SDS011;3661;53.288;10.458;2023-05-16T11:19:06;1883.18;;;999.90;;
7239;SDS011;3661;53.288;10.458;2023-05-16T11:24:59;1868.97;;;999.90;;
7239;SDS011;3661;53.288;10.458;2023-05-16T11:46:48;1891.63;;;999.90;;
7239;SDS011;3661;53.288;10.458;2023-05-16T11:52:48;1899.33;;;999.90;;
7239;SDS011;3661;53.288;10.458;2023-05-16T11:58:50;1885.25;;;999.90;;
7239;SDS011;3661;53.288;10.458;2023-05-16T12:04:52;1868.72;;;999.90;;
7239;SDS011;3661;53.288;10.458;2023-05-16T12:10:52;1868.70;;;999.90;;
7239;SDS011;3661;53.288;10.458;2023-05-16T12:16:51;1880.07;;;999.90;;
7239;SDS011;3661;53.288;10.458;2023-05-16T12:22:52;1887.13;;;999.90;;
7239;SDS011;3661;53.288;10.458;2023-05-16T12:28:57;1865.75;;;999.90;;
7239;SDS011;3661;53.288;10.458;2023-05-16T12:35:00;1869.63;;;999.90;;
7239;SDS011;3661;53.288;10.458;2023-05-16T12:41:04;1875.43;;;999.90;;
7239;SDS011;3661;53.288;10.458;2023-05-16T12:47:13;1899.45;;;999.90;;
7239;SDS011;3661;53.288;10.458;2023-05-16T12:53:12;1906.70;;;999.90;;
7239;SDS011;3661;53.288;10.458;2023-05-16T12:59:15;1906.35;;;999.90;;
7239;SDS011;3661;53.288;10.458;2023-05-16T13:05:16;1894.05;;;999.90;;
7239;SDS011;3661;53.288;10.458;2023-05-16T13:11:19;1894.63;;;999.90;;
7239;SDS011;3661;53.288;10.458;2023-05-16T13:17:20;1876.10;;;999.90;;
7239;SDS011;3661;53.288;10.458;2023-05-16T13:19:53;1878.32;;;999.90;;
7239;SDS011;3661;53.288;10.458;2023-05-16T13:22:26;1872.28;;;999.90;;
7239;SDS011;3661;53.288;10.458;2023-05-16T13:25:09;1883.05;;;999.90;;
7239;SDS011;3661;53.288;10.458;2023-05-16T13:27:41;1888.70;;;999.90;;
7239;SDS011;3661;53.288;10.458;2023-05-16T13:30:14;1874.57;;;999.90;;
7239;SDS011;3661;53.288;10.458;2023-05-16T13:32:47;1896.82;;;999.90;;
7239;SDS011;3661;53.288;10.458;2023-05-16T13:35:20;1889.43;;;999.90;;
7239;SDS011;3661;53.288;10.458;2023-05-16T13:37:55;1897.57;;;999.90;;
7239;SDS011;3661;53.288;10.458;2023-05-16T13:40:31;1879.75;;;999.90;;
7239;SDS011;3661;53.288;10.458;2023-05-16T13:43:03;1884.75;;;999.90;;
7239;SDS011;3661;53.288;10.458;2023-05-16T13:45:35;1891.00;;;999.90;;
7239;SDS011;3661;53.288;10.458;2023-05-16T13:48:09;1888.75;;;999.90;;
7239;SDS011;3661;53.288;10.458;2023-05-16T13:50:42;1893.00;;;999.90;;
7239;SDS011;3661;53.288;10.458;2023-05-16T13:53:14;1881.57;;;999.90;;
7239;SDS011;3661;53.288;10.458;2023-05-16T13:55:46;1908.70;;;999.90;;
7239;SDS011;3661;53.288;10.458;2023-05-16T13:58:18;1895.00;;;999.90;;
7239;SDS011;3661;53.288;10.458;2023-05-16T14:00:50;1906.18;;;999.90;;
7239;SDS011;3661;53.288;10.458;2023-05-16T14:03:23;1909.97;;;999.90;;
7239;SDS011;3661;53.288;10.458;2023-05-16T14:05:56;1906.60;;;999.90;;
7239;SDS011;3661;53.288;10.458;2023-05-16T14:08:28;1905.15;;;999.90;;
7239;SDS011;3661;53.288;10.458;2023-05-16T14:11:04;1916.38;;;999.90;;
7239;SDS011;3661;53.288;10.458;2023-05-16T14:13:36;1921.35;;;999.90;;
7239;SDS011;3661;53.288;10.458;2023-05-16T14:16:09;1910.90;;;999.90;;
7239;SDS011;3661;53.288;10.458;2023-05-16T14:18:45;1932.80;;;999.90;;
7239;SDS011;3661;53.288;10.458;2023-05-16T14:21:17;1915.85;;;999.90;;
7239;SDS011;3661;53.288;10.458;2023-05-16T14:23:49;1906.45;;;999.90;;
7239;SDS011;3661;53.288;10.458;2023-05-16T14:26:21;1928.63;;;999.90;;
7239;SDS011;3661;53.288;10.458;2023-05-16T14:28:54;1921.28;;;999.90;;
7239;SDS011;3661;53.288;10.458;2023-05-16T14:31:26;1921.20;;;999.90;;
7239;SDS011;3661;53.288;10.458;2023-05-16T14:34:00;1906.38;;;999.90;;
7239;SDS011;3661;53.288;10.458;2023-05-16T14:36:32;1906.10;;;999.90;;
7239;SDS011;3661;53.288;10.458;2023-05-16T14:39:04;1902.47;;;999.90;;
7239;SDS011;3661;53.288;10.458;2023-05-16T14:41:37;1895.25;;;999.90;;
7239;SDS011;3661;53.288;10.458;2023-05-16T14:44:09;1907.50;;;999.90;;
7239;SDS011;3661;53.288;10.458;2023-05-16T14:46:45;1896.40;;;999.90;;
7239;SDS011;3661;53.288;10.458;2023-05-16T14:49:19;1893.70;;;999.90;;
7239;SDS011;3661;53.288;10.458;2023-05-16T14:51:51;1887.32;;;999.90;;
7239;SDS011;3661;53.288;10.458;2023-05-16T14:54:23;1882.68;;;999.90;;
7239;SDS011;3661;53.288;10.458;2023-05-16T14:56:55;1883.15;;;999.90;;
7239;SDS011;3661;53.288;10.458;2023-05-16T14:59:29;1872.53;;;999.90;;
7239;SDS011;3661;53.288;10.458;2023-05-16T15:02:01;1877.13;;;999.90;;
7239;SDS011;3661;53.288;10.458;2023-05-16T15:04:35;1888.20;;;999.90;;
7239;SDS011;3661;53.288;10.458;2023-05-16T15:07:07;1856.85;;;999.90;;
7239;SDS011;3661;53.288;10.458;2023-05-16T15:09:40;1852.45;;;999.90;;
7239;SDS011;3661;53.288;10.458;2023-05-16T15:12:18;1868.75;;;999.90;;
7239;SDS011;3661;53.288;10.458;2023-05-16T15:14:50;1877.95;;;999.90;;
7239;SDS011;3661;53.288;10.458;2023-05-16T15:17:23;1847.55;;;999.90;;
7239;SDS011;3661;53.288;10.458;2023-05-16T15:19:57;1867.83;;;999.90;;
7239;SDS011;3661;53.288;10.458;2023-05-16T15:22:29;1853.20;;;999.90;;
7239;SDS011;3661;53.288;10.458;2023-05-16T15:25:01;1870.43;;;999.90;;
7239;SDS011;3661;53.288;10.458;2023-05-16T15:27:34;1853.93;;;999.90;;
7239;SDS011;3661;53.288;10.458;2023-05-16T15:30:07;1874.53;;;999.90;;
7239;SDS011;3661;53.288;10.458;2023-05-16T15:32:39;1868.20;;;999.90;;
7239;SDS011;3661;53.288;10.458;2023-05-16T15:35:17;1859.05;;;999.90;;
7239;SDS011;3661;53.288;10.458;2023-05-16T15:37:49;1836.80;;;999.90;;
7239;SDS011;3661;53.288;10.458;2023-05-16T15:40:22;1845.72;;;999.90;;
7239;SDS011;3661;53.288;10.458;2023-05-16T15:42:54;1843.30;;;999.90;;
7239;SDS011;3661;53.288;10.458;2023-05-16T15:45:26;1848.40;;;999.90;;
7239;SDS011;3661;53.288;10.458;2023-05-16T15:47:59;1828.28;;;999.90;;
7239;SDS011;3661;53.288;10.458;2023-05-16T15:50:33;1849.57;;;999.90;;
7239;SDS011;3661;53.288;10.458;2023-05-16T15:53:05;1842.95;;;999.90;;
7239;SDS011;3661;53.288;10.458;2023-05-16T15:55:37;1838.28;;;999.90;;